sensor_id;sensor_type;location;lat;lon;timestamp;P1;durP1;ratioP1;P2;durP2;ratioP2
29302;SDS011;60019;45.556;12.004;2023-01-06T00:00:37;41.25;;;28.30;;
29302;SDS011;60019;45.556;12.004;2023-01-06T00:06:39;36.45;;;26.33;;
29302;SDS011;60019;45.556;12.004;2023-01-06T00:12:44;37.92;;;26.27;;
29302;SDS011;60019;45.556;12.004;2023-01-06T00:18:46;37.83;;;26.52;;
29302;SDS011;60019;45.556;12.004;2023-01-06T00:24:48;34.58;;;25.40;;
29302;SDS011;60019;45.556;12.004;2023-01-06T00:30:50;37.92;;;26.52;;
29302;SDS011;60019;45.556;12.004;2023-01-06T00:36:52;34.72;;;25.40;;
29302;SDS011;60019;45.556;12.004;2023-01-06T00:42:54;36.28;;;26.30;;
29302;SDS011;60019;45.556;12.004;2023-01-06T00:48:56;32.92;;;23.58;;
29302;SDS011;60019;45.556;12.004;2023-01-06T00:54:58;38.67;;;26.33;;
29302;SDS011;60019;45.556;12.004;2023-01-06T01:01:03;36.63;;;25.80;;
29302;SDS011;60019;45.556;12.004;2023-01-06T01:07:05;34.30;;;25.08;;
29302;SDS011;60019;45.556;12.004;2023-01-06T01:13:07;36.50;;;25.15;;
29302;SDS011;60019;45.556;12.004;2023-01-06T01:19:09;36.28;;;26.25;;
29302;SDS011;60019;45.556;12.004;2023-01-06T01:25:13;39.38;;;25.52;;
29302;SDS011;60019;45.556;12.004;2023-01-06T01:31:22;39.85;;;25.25;;
29302;SDS011;60019;45.556;12.004;2023-01-06T01:37:23;36.25;;;25.77;;
29302;SDS011;60019;45.556;12.004;2023-01-06T01:43:41;36.97;;;25.90;;
29302;SDS011;60019;45.556;12.004;2023-01-06T01:49:43;34.58;;;26.10;;
29302;SDS011;60019;45.556;12.004;2023-01-06T01:55:47;38.17;;;25.58;;
29302;SDS011;60019;45.556;12.004;2023-01-06T02:01:49;36.45;;;26.45;;
29302;SDS011;60019;45.556;12.004;2023-01-06T02:07:51;39.05;;;25.63;;
29302;SDS011;60019;45.556;12.004;2023-01-06T02:13:56;35.97;;;25.17;;
29302;SDS011;60019;45.556;12.004;2023-01-06T02:56:56;34.97;;;25.70;;
29302;SDS011;60019;45.556;12.004;2023-01-06T03:03:12;36.75;;;26.42;;
29302;SDS011;60019;45.556;12.004;2023-01-06T03:09:15;39.92;;;28.50;;
29302;SDS011;60019;45.556;12.004;2023-01-06T03:15:26;38.38;;;27.15;;
29302;SDS011;60019;45.556;12.004;2023-01-06T03:21:44;35.85;;;26.63;;
29302;SDS011;60019;45.556;12.004;2023-01-06T03:27:47;37.53;;;26.63;;
29302;SDS011;60019;45.556;12.004;2023-01-06T03:40:13;37.97;;;25.88;;
29302;SDS011;60019;45.556;12.004;2023-01-06T03:52:23;36.45;;;25.70;;
29302;SDS011;60019;45.556;12.004;2023-01-06T03:58:27;36.90;;;25.50;;
29302;SDS011;60019;45.556;12.004;2023-01-06T04:04:30;37.75;;;27.17;;
29302;SDS011;60019;45.556;12.004;2023-01-06T04:10:32;37.42;;;26.27;;
29302;SDS011;60019;45.556;12.004;2023-01-06T04:16:35;37.15;;;25.95;;
29302;SDS011;60019;45.556;12.004;2023-01-06T04:22:37;36.97;;;26.10;;
29302;SDS011;60019;45.556;12.004;2023-01-06T04:28:39;36.35;;;26.67;;
29302;SDS011;60019;45.556;12.004;2023-01-06T04:34:41;35.78;;;25.27;;
29302;SDS011;60019;45.556;12.004;2023-01-06T04:40:44;34.17;;;24.30;;
29302;SDS011;60019;45.556;12.004;2023-01-06T04:46:46;31.92;;;24.55;;
29302;SDS011;60019;45.556;12.004;2023-01-06T04:52:48;32.83;;;24.40;;
29302;SDS011;60019;45.556;12.004;2023-01-06T04:58:53;34.00;;;25.55;;
29302;SDS011;60019;45.556;12.004;2023-01-06T05:04:56;30.80;;;23.13;;
29302;SDS011;60019;45.556;12.004;2023-01-06T05:11:02;35.00;;;23.58;;
29302;SDS011;60019;45.556;12.004;2023-01-06T05:17:04;29.63;;;21.20;;
29302;SDS011;60019;45.556;12.004;2023-01-06T05:23:06;31.48;;;20.65;;
29302;SDS011;60019;45.556;12.004;2023-01-06T05:29:10;31.42;;;21.73;;
29302;SDS011;60019;45.556;12.004;2023-01-06T05:35:13;29.95;;;20.20;;
29302;SDS011;60019;45.556;12.004;2023-01-06T05:41:18;26.38;;;20.17;;
29302;SDS011;60019;45.556;12.004;2023-01-06T05:47:19;24.92;;;18.40;;
29302;SDS011;60019;45.556;12.004;2023-01-06T05:53:21;29.48;;;19.42;;
29302;SDS011;60019;45.556;12.004;2023-01-06T05:59:23;29.02;;;19.80;;
29302;SDS011;60019;45.556;12.004;2023-01-06T06:05:25;24.30;;;18.50;;
29302;SDS011;60019;45.556;12.004;2023-01-06T06:11:27;26.45;;;17.55;;
29302;SDS011;60019;45.556;12.004;2023-01-06T06:17:29;26.98;;;18.33;;
29302;SDS011;60019;45.556;12.004;2023-01-06T06:23:31;23.17;;;16.92;;
29302;SDS011;60019;45.556;12.004;2023-01-06T06:29:33;22.92;;;16.05;;
29302;SDS011;60019;45.556;12.004;2023-01-06T06:35:35;23.63;;;16.20;;
29302;SDS011;60019;45.556;12.004;2023-01-06T06:41:37;21.95;;;14.98;;
29302;SDS011;60019;45.556;12.004;2023-01-06T06:47:38;23.17;;;16.92;;
29302;SDS011;60019;45.556;12.004;2023-01-06T06:53:40;23.08;;;16.63;;
29302;SDS011;60019;45.556;12.004;2023-01-06T06:59:42;21.45;;;15.65;;
29302;SDS011;60019;45.556;12.004;2023-01-06T07:05:44;20.73;;;15.18;;
29302;SDS011;60019;45.556;12.004;2023-01-06T07:11:46;21.80;;;15.38;;
29302;SDS011;60019;45.556;12.004;2023-01-06T07:17:48;22.65;;;17.15;;
29302;SDS011;60019;45.556;12.004;2023-01-06T07:23:50;22.13;;;15.88;;
29302;SDS011;60019;45.556;12.004;2023-01-06T07:29:52;24.40;;;15.90;;
29302;SDS011;60019;45.556;12.004;2023-01-06T07:35:54;24.63;;;16.73;;
29302;SDS011;60019;45.556;12.004;2023-01-06T07:41:56;23.15;;;15.93;;
29302;SDS011;60019;45.556;12.004;2023-01-06T07:47:58;22.27;;;14.98;;
29302;SDS011;60019;45.556;12.004;2023-01-06T07:54:00;24.20;;;15.80;;
29302;SDS011;60019;45.556;12.004;2023-01-06T08:00:02;23.83;;;17.02;;
29302;SDS011;60019;45.556;12.004;2023-01-06T08:06:12;27.23;;;17.63;;
29302;SDS011;60019;45.556;12.004;2023-01-06T08:12:14;23.30;;;16.30;;
29302;SDS011;60019;45.556;12.004;2023-01-06T08:18:16;22.70;;;15.55;;
29302;SDS011;60019;45.556;12.004;2023-01-06T08:24:18;22.00;;;15.32;;
29302;SDS011;60019;45.556;12.004;2023-01-06T08:30:20;25.42;;;17.35;;
29302;SDS011;60019;45.556;12.004;2023-01-06T08:36:25;25.17;;;16.00;;
29302;SDS011;60019;45.556;12.004;2023-01-06T08:42:27;29.42;;;15.88;;
29302;SDS011;60019;45.556;12.004;2023-01-06T08:48:29;25.83;;;16.23;;
29302;SDS011;60019;45.556;12.004;2023-01-06T08:54:31;27.90;;;18.08;;
29302;SDS011;60019;45.556;12.004;2023-01-06T09:00:33;24.05;;;15.90;;
29302;SDS011;60019;45.556;12.004;2023-01-06T09:06:36;28.17;;;18.10;;
29302;SDS011;60019;45.556;12.004;2023-01-06T09:12:38;27.38;;;18.73;;
29302;SDS011;60019;45.556;12.004;2023-01-06T09:18:40;36.50;;;20.63;;
29302;SDS011;60019;45.556;12.004;2023-01-06T09:24:47;28.08;;;21.25;;
29302;SDS011;60019;45.556;12.004;2023-01-06T09:30:49;36.05;;;23.02;;
29302;SDS011;60019;45.556;12.004;2023-01-06T09:36:51;39.00;;;21.77;;
29302;SDS011;60019;45.556;12.004;2023-01-06T09:55:09;37.28;;;21.15;;
29302;SDS011;60019;45.556;12.004;2023-01-06T10:01:13;32.42;;;20.92;;
29302;SDS011;60019;45.556;12.004;2023-01-06T10:25:34;30.48;;;20.33;;
29302;SDS011;60019;45.556;12.004;2023-01-06T10:31:38;27.40;;;20.52;;
29302;SDS011;60019;45.556;12.004;2023-01-06T10:37:43;37.80;;;19.63;;
29302;SDS011;60019;45.556;12.004;2023-01-06T10:43:46;25.05;;;19.02;;
29302;SDS011;60019;45.556;12.004;2023-01-06T10:49:48;26.88;;;18.23;;
29302;SDS011;60019;45.556;12.004;2023-01-06T10:55:53;28.80;;;19.35;;
29302;SDS011;60019;45.556;12.004;2023-01-06T11:01:56;35.17;;;19.33;;
29302;SDS011;60019;45.556;12.004;2023-01-06T11:08:05;31.75;;;20.88;;
29302;SDS011;60019;45.556;12.004;2023-01-06T11:14:12;29.92;;;20.75;;
29302;SDS011;60019;45.556;12.004;2023-01-06T11:26:18;26.30;;;18.67;;
29302;SDS011;60019;45.556;12.004;2023-01-06T11:32:26;27.63;;;19.55;;
29302;SDS011;60019;45.556;12.004;2023-01-06T11:38:31;35.00;;;21.25;;
29302;SDS011;60019;45.556;12.004;2023-01-06T11:44:33;27.55;;;20.08;;
29302;SDS011;60019;45.556;12.004;2023-01-06T11:50:35;30.05;;;19.27;;
29302;SDS011;60019;45.556;12.004;2023-01-06T11:56:37;29.33;;;19.25;;
29302;SDS011;60019;45.556;12.004;2023-01-06T12:03:01;25.50;;;19.20;;
29302;SDS011;60019;45.556;12.004;2023-01-06T12:09:28;28.70;;;18.23;;
29302;SDS011;60019;45.556;12.004;2023-01-06T12:15:31;38.08;;;25.10;;
29302;SDS011;60019;45.556;12.004;2023-01-06T12:21:35;44.42;;;27.88;;
29302;SDS011;60019;45.556;12.004;2023-01-06T12:27:42;42.78;;;27.60;;
29302;SDS011;60019;45.556;12.004;2023-01-06T12:52:14;35.72;;;23.05;;
29302;SDS011;60019;45.556;12.004;2023-01-06T13:17:23;27.48;;;18.40;;
29302;SDS011;60019;45.556;12.004;2023-01-06T13:30:10;26.30;;;17.98;;
29302;SDS011;60019;45.556;12.004;2023-01-06T13:42:28;29.60;;;19.17;;
29302;SDS011;60019;45.556;12.004;2023-01-06T13:48:32;29.10;;;18.83;;
29302;SDS011;60019;45.556;12.004;2023-01-06T14:00:41;29.05;;;17.65;;
29302;SDS011;60019;45.556;12.004;2023-01-06T14:06:43;30.85;;;18.83;;
29302;SDS011;60019;45.556;12.004;2023-01-06T14:12:46;28.02;;;17.33;;
29302;SDS011;60019;45.556;12.004;2023-01-06T14:18:49;25.95;;;16.50;;
29302;SDS011;60019;45.556;12.004;2023-01-06T14:24:54;27.23;;;18.30;;
29302;SDS011;60019;45.556;12.004;2023-01-06T14:37:17;26.13;;;17.10;;
29302;SDS011;60019;45.556;12.004;2023-01-06T14:49:41;25.08;;;17.08;;
29302;SDS011;60019;45.556;12.004;2023-01-06T14:55:45;23.15;;;16.60;;
29302;SDS011;60019;45.556;12.004;2023-01-06T15:02:09;26.73;;;16.92;;
29302;SDS011;60019;45.556;12.004;2023-01-06T15:08:14;26.98;;;17.45;;
29302;SDS011;60019;45.556;12.004;2023-01-06T15:14:30;30.10;;;18.48;;
29302;SDS011;60019;45.556;12.004;2023-01-06T15:20:33;25.55;;;17.50;;
29302;SDS011;60019;45.556;12.004;2023-01-06T15:26:35;27.08;;;16.75;;
29302;SDS011;60019;45.556;12.004;2023-01-06T15:32:37;27.30;;;17.88;;
29302;SDS011;60019;45.556;12.004;2023-01-06T15:38:41;26.17;;;16.77;;
29302;SDS011;60019;45.556;12.004;2023-01-06T15:44:52;26.45;;;16.02;;
29302;SDS011;60019;45.556;12.004;2023-01-06T15:50:54;28.00;;;18.15;;
29302;SDS011;60019;45.556;12.004;2023-01-06T15:56:56;23.88;;;16.30;;
29302;SDS011;60019;45.556;12.004;2023-01-06T16:02:59;25.50;;;17.60;;
29302;SDS011;60019;45.556;12.004;2023-01-06T16:09:23;26.33;;;17.83;;
29302;SDS011;60019;45.556;12.004;2023-01-06T16:15:34;25.00;;;16.80;;
29302;SDS011;60019;45.556;12.004;2023-01-06T16:21:36;24.90;;;16.25;;
29302;SDS011;60019;45.556;12.004;2023-01-06T16:27:39;27.85;;;17.02;;
29302;SDS011;60019;45.556;12.004;2023-01-06T16:33:46;29.38;;;17.45;;
29302;SDS011;60019;45.556;12.004;2023-01-06T16:39:48;26.92;;;16.20;;
29302;SDS011;60019;45.556;12.004;2023-01-06T16:45:57;23.27;;;15.68;;
29302;SDS011;60019;45.556;12.004;2023-01-06T16:52:00;23.42;;;17.02;;
29302;SDS011;60019;45.556;12.004;2023-01-06T17:04:19;25.70;;;17.13;;
29302;SDS011;60019;45.556;12.004;2023-01-06T17:10:21;27.42;;;18.35;;
29302;SDS011;60019;45.556;12.004;2023-01-06T17:16:24;25.38;;;16.88;;
29302;SDS011;60019;45.556;12.004;2023-01-06T17:22:29;25.83;;;16.92;;
29302;SDS011;60019;45.556;12.004;2023-01-06T17:28:31;26.50;;;16.98;;
29302;SDS011;60019;45.556;12.004;2023-01-06T17:34:34;29.30;;;18.23;;
29302;SDS011;60019;45.556;12.004;2023-01-06T17:40:36;26.98;;;18.45;;
29302;SDS011;60019;45.556;12.004;2023-01-06T17:46:38;28.92;;;19.65;;
29302;SDS011;60019;45.556;12.004;2023-01-06T17:52:40;29.33;;;19.58;;
29302;SDS011;60019;45.556;12.004;2023-01-06T17:58:43;30.38;;;17.70;;
29302;SDS011;60019;45.556;12.004;2023-01-06T18:04:45;30.85;;;20.48;;
29302;SDS011;60019;45.556;12.004;2023-01-06T18:10:54;28.65;;;18.85;;
29302;SDS011;60019;45.556;12.004;2023-01-06T18:16:58;31.42;;;19.60;;
29302;SDS011;60019;45.556;12.004;2023-01-06T18:23:10;29.17;;;19.08;;
29302;SDS011;60019;45.556;12.004;2023-01-06T18:29:16;26.90;;;18.92;;
29302;SDS011;60019;45.556;12.004;2023-01-06T18:35:20;30.17;;;20.35;;
29302;SDS011;60019;45.556;12.004;2023-01-06T18:41:22;30.90;;;19.90;;
29302;SDS011;60019;45.556;12.004;2023-01-06T18:47:23;34.00;;;20.02;;
29302;SDS011;60019;45.556;12.004;2023-01-06T18:53:39;31.17;;;19.85;;
29302;SDS011;60019;45.556;12.004;2023-01-06T18:59:42;30.65;;;19.65;;
29302;SDS011;60019;45.556;12.004;2023-01-06T19:05:44;33.22;;;21.35;;
29302;SDS011;60019;45.556;12.004;2023-01-06T19:11:48;33.05;;;22.02;;
29302;SDS011;60019;45.556;12.004;2023-01-06T19:17:52;32.38;;;20.25;;
29302;SDS011;60019;45.556;12.004;2023-01-06T19:23:54;34.15;;;21.08;;
29302;SDS011;60019;45.556;12.004;2023-01-06T19:30:00;31.60;;;20.90;;
29302;SDS011;60019;45.556;12.004;2023-01-06T19:48:25;32.90;;;22.70;;
29302;SDS011;60019;45.556;12.004;2023-01-06T19:54:30;33.95;;;22.58;;
29302;SDS011;60019;45.556;12.004;2023-01-06T20:00:38;38.00;;;23.77;;
29302;SDS011;60019;45.556;12.004;2023-01-06T20:06:43;35.20;;;22.63;;
29302;SDS011;60019;45.556;12.004;2023-01-06T20:12:46;35.40;;;23.75;;
29302;SDS011;60019;45.556;12.004;2023-01-06T20:18:48;38.90;;;23.67;;
29302;SDS011;60019;45.556;12.004;2023-01-06T20:24:50;31.60;;;22.40;;
29302;SDS011;60019;45.556;12.004;2023-01-06T20:30:52;36.38;;;23.35;;
29302;SDS011;60019;45.556;12.004;2023-01-06T20:36:54;34.28;;;22.20;;
29302;SDS011;60019;45.556;12.004;2023-01-06T20:42:55;37.13;;;22.77;;
29302;SDS011;60019;45.556;12.004;2023-01-06T20:48:57;36.67;;;23.15;;
29302;SDS011;60019;45.556;12.004;2023-01-06T20:54:59;32.83;;;22.08;;
29302;SDS011;60019;45.556;12.004;2023-01-06T21:01:01;31.73;;;21.85;;
29302;SDS011;60019;45.556;12.004;2023-01-06T21:07:03;34.58;;;22.88;;
29302;SDS011;60019;45.556;12.004;2023-01-06T21:13:06;31.42;;;21.48;;
29302;SDS011;60019;45.556;12.004;2023-01-06T21:19:08;30.95;;;20.80;;
29302;SDS011;60019;45.556;12.004;2023-01-06T21:25:10;32.65;;;21.50;;
29302;SDS011;60019;45.556;12.004;2023-01-06T21:31:12;34.08;;;21.38;;
29302;SDS011;60019;45.556;12.004;2023-01-06T21:37:13;31.98;;;21.90;;
29302;SDS011;60019;45.556;12.004;2023-01-06T21:43:15;31.55;;;21.33;;
29302;SDS011;60019;45.556;12.004;2023-01-06T21:49:18;31.23;;;20.42;;
29302;SDS011;60019;45.556;12.004;2023-01-06T21:55:19;32.17;;;21.38;;
29302;SDS011;60019;45.556;12.004;2023-01-06T22:01:21;30.40;;;19.65;;
29302;SDS011;60019;45.556;12.004;2023-01-06T22:07:23;42.53;;;22.95;;
29302;SDS011;60019;45.556;12.004;2023-01-06T22:13:25;49.53;;;26.90;;
29302;SDS011;60019;45.556;12.004;2023-01-06T22:19:27;41.60;;;25.92;;
29302;SDS011;60019;45.556;12.004;2023-01-06T22:25:29;41.47;;;23.42;;
29302;SDS011;60019;45.556;12.004;2023-01-06T22:31:31;37.63;;;23.05;;
29302;SDS011;60019;45.556;12.004;2023-01-06T22:37:33;40.53;;;23.77;;
29302;SDS011;60019;45.556;12.004;2023-01-06T22:43:35;41.03;;;24.98;;
29302;SDS011;60019;45.556;12.004;2023-01-06T22:49:37;38.13;;;24.75;;
29302;SDS011;60019;45.556;12.004;2023-01-06T22:55:39;36.95;;;22.00;;
29302;SDS011;60019;45.556;12.004;2023-01-06T23:01:41;38.65;;;21.30;;
29302;SDS011;60019;45.556;12.004;2023-01-06T23:07:43;31.25;;;20.65;;
29302;SDS011;60019;45.556;12.004;2023-01-06T23:13:45;38.08;;;20.75;;
29302;SDS011;60019;45.556;12.004;2023-01-06T23:19:48;32.35;;;19.67;;
29302;SDS011;60019;45.556;12.004;2023-01-06T23:25:50;32.92;;;20.27;;
29302;SDS011;60019;45.556;12.004;2023-01-06T23:31:52;28.55;;;20.20;;
29302;SDS011;60019;45.556;12.004;2023-01-06T23:37:53;29.83;;;19.27;;
29302;SDS011;60019;45.556;12.004;2023-01-06T23:43:55;28.33;;;18.20;;
29302;SDS011;60019;45.556;12.004;2023-01-06T23:49:57;31.65;;;18.88;;
29302;SDS011;60019;45.556;12.004;2023-01-06T23:56:03;31.40;;;20.15;;
